Larkfield, California
Current Conditions -  °F | °C
As of 4:17 AM on Friday 24 Oct 2014 (Local Time) from KSTS Reporting Station
Haze Haze  
Wind Chill: 10°   Ceiling: Unl
Heat Index: 10°   Visibility: 1.2mi
Dew Point: 10°   Wind: 0mph
Humidity: 100%   Direction: NA
Pressure: 29.95"   Gusts: NA
Location:  38.4891°N, 122.745°W
Report Text: KSTS 241117Z AUTO 00000KT 1 1/4SM BR SCT009 10/10 A2995 RMK AO2
Loading
Personal Weather Stations






























Interactive Weather Map
Tropical Storm Tracking
New forecast layout! Learn more

10-Day Weather Forecast

Advertisements
Track Severe Weather on mobile